createdAt,value
2023-04-19T00:01:28.766Z,100256.90
2023-04-19T00:03:57.693Z,100253.34
2023-04-19T00:06:26.397Z,100243.56
2023-04-19T00:08:55.131Z,100250.90
2023-04-19T00:11:24.644Z,100247.83
2023-04-19T00:13:52.965Z,100251.38
2023-04-19T00:16:21.822Z,100252.55
2023-04-19T00:18:50.308Z,100256.10
2023-04-19T00:21:18.765Z,100252.64
2023-04-19T00:23:47.462Z,100253.05
2023-04-19T00:26:18.291Z,100263.48
2023-04-19T00:28:49.037Z,100266.77
2023-04-19T00:31:17.685Z,100261.01
2023-04-19T00:33:46.391Z,100258.81
2023-04-19T00:36:14.875Z,100256.13
2023-04-19T00:38:43.525Z,100255.17
2023-04-19T00:41:12.247Z,100250.55
2023-04-19T00:43:40.852Z,100252.06
2023-04-19T00:46:09.393Z,100254.33
2023-04-19T00:48:37.932Z,100254.95
2023-04-19T00:51:06.804Z,100256.38
2023-04-19T00:53:36.096Z,100262.54
2023-04-19T00:56:05.423Z,100256.64
2023-04-19T00:58:33.949Z,100253.98
2023-04-19T01:01:02.661Z,100256.73
2023-04-19T01:03:32.032Z,100255.82
2023-04-19T01:06:00.652Z,100249.84
2023-04-19T01:08:29.170Z,100248.21
2023-04-19T01:10:58.009Z,100245.80
2023-04-19T01:13:28.236Z,100246.79
2023-04-19T01:15:56.456Z,100243.83
2023-04-19T01:18:26.023Z,100241.55
2023-04-19T01:20:54.701Z,100237.60
2023-04-19T01:23:23.401Z,100240.39
2023-04-19T01:25:52.585Z,100238.17
2023-04-19T01:28:20.970Z,100242.08
2023-04-19T01:30:51.541Z,100236.15
2023-04-19T01:33:21.110Z,100233.92
2023-04-19T01:35:49.524Z,100232.91
2023-04-19T01:38:18.063Z,100236.44
2023-04-19T01:40:46.542Z,100233.42
2023-04-19T01:43:17.636Z,100228.74
2023-04-19T01:45:46.394Z,100230.89
2023-04-19T01:48:14.889Z,100229.50
2023-04-19T01:50:43.468Z,100226.89
2023-04-19T01:53:12.649Z,100229.02
2023-04-19T01:55:41.331Z,100233.36
2023-04-19T01:58:10.107Z,100233.91
2023-04-19T02:00:38.727Z,100235.04
2023-04-19T02:03:07.848Z,100233.46
2023-04-19T02:05:36.414Z,100229.16
2023-04-19T02:08:05.284Z,100223.82
2023-04-19T02:10:33.646Z,100225.30
2023-04-19T02:13:02.123Z,100223.30
2023-04-19T02:15:30.910Z,100225.73
2023-04-19T02:18:00.754Z,100220.50
2023-04-19T02:20:29.651Z,100212.48
2023-04-19T02:22:58.099Z,100209.84
2023-04-19T02:25:26.584Z,100213.05
2023-04-19T02:27:55.294Z,100215.05
2023-04-19T02:30:24.184Z,100218.30
2023-04-19T02:32:52.758Z,100215.09
2023-04-19T02:35:21.738Z,100210.90
2023-04-19T02:37:50.213Z,100206.70
2023-04-19T02:40:21.423Z,100201.88
2023-04-19T02:42:49.989Z,100205.98
2023-04-19T02:45:18.661Z,100202.82
2023-04-19T02:47:48.220Z,100195.85
2023-04-19T02:50:17.251Z,100193.41
2023-04-19T02:52:49.212Z,100189.48
2023-04-19T02:55:17.997Z,100186.19
2023-04-19T02:57:46.972Z,100183.26
2023-04-19T03:00:16.370Z,100179.23
2023-04-19T03:02:51.679Z,100174.52
2023-04-19T03:05:20.505Z,100169.97
2023-04-19T03:07:49.492Z,100172.89
2023-04-19T03:10:18.496Z,100164.92
2023-04-19T03:12:47.189Z,100163.23
2023-04-19T03:15:16.479Z,100163.89
2023-04-19T03:17:45.081Z,100161.54
2023-04-19T03:20:14.148Z,100159.92
2023-04-19T03:22:42.642Z,100161.75
2023-04-19T03:25:13.837Z,100162.05
2023-04-19T03:27:45.431Z,100157.96
2023-04-19T03:30:15.184Z,100166.85
2023-04-19T03:32:46.428Z,100171.74
2023-04-19T03:35:15.058Z,100169.98
2023-04-19T03:37:43.656Z,100164.83
2023-04-19T03:40:12.740Z,100171.31
2023-04-19T03:42:41.533Z,100171.86
2023-04-19T03:45:19.204Z,100178.09
2023-04-19T03:47:48.813Z,100179.53
2023-04-19T03:50:17.513Z,100189.70
2023-04-19T03:52:47.635Z,100190.21
2023-04-19T03:55:16.433Z,100183.13
2023-04-19T03:57:44.885Z,100184.41
2023-04-19T04:00:19.882Z,100188.55
2023-04-19T04:02:51.027Z,100198.29
2023-04-19T04:05:20.147Z,100195.41
2023-04-19T04:07:49.641Z,100198.34
2023-04-19T04:10:18.113Z,100198.47
2023-04-19T04:12:46.674Z,100201.76
2023-04-19T04:15:19.286Z,100208.95
2023-04-19T04:17:51.366Z,100205.54
2023-04-19T04:20:20.754Z,100199.60
2023-04-19T04:22:49.178Z,100207.98
2023-04-19T04:25:19.972Z,100202.70
